Time;durP1;ratioP1;P1;durP2;ratioP2;P2;SDS_P1;SDS_P2;PMS_P1;PMS_P2;Temp;Humidity;BMP_temperature;BMP_pressure;BME280_temperature;BME280_humidity;BME280_pressure;Samples;Min_cycle;Max_cycle;Signal;HPM_P1;HPM_P2
2023/05/19 00:00:31;;;;;;;8.50;4.93;;;;;;;9.48;61.22;102554.78;5031526;28;20025;-78
2023/05/19 00:02:59;;;;;;;8.32;4.80;;;;;;;9.48;60.64;102554.78;5032113;28;20121;-78
2023/05/19 00:05:26;;;;;;;9.85;5.43;;;;;;;9.47;61.38;102554.78;5031717;28;20041;-78
2023/05/19 00:07:57;;;;;;;7.47;5.32;;;;;;;9.43;61.45;102553.03;5030690;28;20029;-77
2023/05/19 00:10:23;;;;;;;10.77;5.30;;;;;;;9.39;61.86;102555.59;5032443;28;20029;-78
2023/05/19 00:12:48;;;;;;;7.97;5.22;;;;;;;9.35;61.97;102553.84;5032750;28;20025;-78
2023/05/19 00:15:14;;;;;;;8.77;5.55;;;;;;;9.32;62.46;102555.53;5033709;28;20487;-78
2023/05/19 00:17:41;;;;;;;9.27;5.45;;;;;;;9.29;62.87;102552.91;5029835;28;20028;-77
2023/05/19 00:20:07;;;;;;;8.35;5.22;;;;;;;9.23;62.84;102546.81;5026651;28;20021;-78
2023/05/19 00:22:32;;;;;;;9.60;4.88;;;;;;;9.19;63.08;102541.59;5029483;28;20105;-78
2023/05/19 00:24:58;;;;;;;8.73;5.50;;;;;;;9.18;63.83;102545.06;5032450;28;20029;-78
2023/05/19 00:27:23;;;;;;;8.35;5.50;;;;;;;9.14;63.18;102541.56;5031808;28;20025;-78
2023/05/19 00:29:48;;;;;;;10.13;5.40;;;;;;;9.14;63.15;102538.13;5032511;28;20037;-78
2023/05/19 00:32:14;;;;;;;7.28;5.45;;;;;;;9.12;63.41;102540.69;5034057;28;20438;-78
2023/05/19 00:34:40;;;;;;;9.18;5.93;;;;;;;9.10;63.68;102537.19;5031757;28;20040;-78
2023/05/19 00:37:05;;;;;;;8.77;5.45;;;;;;;9.07;63.64;102538.06;5031307;28;20041;-78
2023/05/19 00:39:30;;;;;;;7.82;5.57;;;;;;;9.04;64.13;102537.16;5030990;28;20079;-78
2023/05/19 00:41:56;;;;;;;9.88;5.25;;;;;;;9.02;64.14;102534.53;5030580;28;20397;-78
2023/05/19 00:44:21;;;;;;;7.50;5.38;;;;;;;8.99;64.24;102528.47;5031713;28;20460;-78
2023/05/19 00:46:46;;;;;;;9.35;5.32;;;;;;;8.99;64.42;102529.31;5031505;28;20432;-78
2023/05/19 00:49:12;;;;;;;9.50;5.32;;;;;;;8.98;64.91;102526.72;5031555;28;20033;-78
2023/05/19 00:51:37;;;;;;;9.75;5.20;;;;;;;8.95;64.78;102522.38;4994353;28;1024613;-78
2023/05/19 00:54:03;;;;;;;8.10;5.30;;;;;;;8.94;64.69;102523.25;5030265;28;20032;-78
2023/05/19 00:56:30;;;;;;;8.82;5.07;;;;;;;8.91;65.24;102521.47;5031443;28;20037;-78
2023/05/19 00:58:56;;;;;;;9.07;4.75;;;;;;;8.89;65.40;102518.00;5031372;28;20256;-77
2023/05/19 01:01:21;;;;;;;8.13;4.82;;;;;;;8.87;65.33;102514.53;5032844;28;20132;-78
2023/05/19 01:03:47;;;;;;;6.80;4.63;;;;;;;8.86;65.62;102517.09;5033398;28;20067;-78
2023/05/19 01:06:13;;;;;;;11.98;5.05;;;;;;;8.84;65.74;102524.00;5034165;28;20032;-78
2023/05/19 01:08:39;;;;;;;8.32;4.57;;;;;;;8.81;66.08;102523.13;5033483;28;20366;-82
2023/05/19 01:11:05;;;;;;;8.25;4.68;;;;;;;8.81;66.22;102524.84;5033791;28;20028;-78
2023/05/19 01:13:31;;;;;;;9.25;4.60;;;;;;;8.78;66.65;102530.00;5032988;28;20109;-78
2023/05/19 01:16:23;;;;;;;8.45;5.05;;;;;;;8.75;65.49;102529.97;5033117;28;20053;-78
2023/05/19 01:19:03;;;;;;;7.43;4.40;;;;;;;8.73;65.71;102526.50;5031350;28;20028;-78
2023/05/19 01:21:59;;;;;;;7.68;4.07;;;;;;;8.71;65.67;102528.25;5030428;28;20029;-77
2023/05/19 01:24:46;;;;;;;7.68;4.80;;;;;;;8.68;67.11;102528.22;5032236;28;20025;-77
2023/05/19 01:27:45;;;;;;;9.35;4.45;;;;;;;8.64;66.55;102522.97;5030128;28;20039;-77
2023/05/19 01:30:22;;;;;;;8.25;4.28;;;;;;;8.63;65.79;102521.25;5031977;28;20507;-77
2023/05/19 01:32:51;;;;;;;7.60;4.32;;;;;;;8.60;67.71;102523.81;5030169;28;20538;-77
2023/05/19 01:35:17;;;;;;;6.97;4.40;;;;;;;8.57;67.58;102528.94;5026165;28;20037;-77
2023/05/19 01:37:44;;;;;;;8.27;4.50;;;;;;;8.57;67.76;102525.50;5028546;28;20030;-78
2023/05/19 01:40:10;;;;;;;10.82;4.70;;;;;;;8.54;67.97;102530.66;5031345;28;20033;-77
2023/05/19 01:42:38;;;;;;;9.75;4.45;;;;;;;8.50;68.37;102532.34;5030642;28;20036;-77
2023/05/19 01:45:05;;;;;;;6.80;4.60;;;;;;;8.48;68.33;102526.28;5029876;28;20029;-78
2023/05/19 01:47:33;;;;;;;7.95;4.43;;;;;;;8.46;68.92;102533.13;5028940;28;20075;-77
2023/05/19 01:49:59;;;;;;;9.00;4.55;;;;;;;8.42;68.81;102528.75;5029255;28;20116;-78
2023/05/19 01:52:24;;;;;;;6.30;4.03;;;;;;;8.41;69.23;102524.44;5028991;28;20144;-78
2023/05/19 01:54:50;;;;;;;6.82;4.10;;;;;;;8.37;69.32;102523.53;5028055;28;20037;-77
2023/05/19 01:57:31;;;;;;;6.80;4.60;;;;;;;8.34;69.19;102521.78;5028310;28;20044;-77
2023/05/19 01:59:56;;;;;;;5.82;4.05;;;;;;;8.34;69.05;102521.78;5026007;28;20449;-77
2023/05/19 02:02:30;;;;;;;10.45;4.78;;;;;;;8.30;69.63;102520.00;5027874;28;20029;-78
2023/05/19 02:05:06;;;;;;;9.82;4.43;;;;;;;8.30;68.95;102514.81;5030159;28;20041;-77
2023/05/19 02:07:51;;;;;;;6.10;4.25;;;;;;;8.27;69.64;102512.19;5030393;28;20231;-77
2023/05/19 02:10:39;;;;;;;6.18;4.35;;;;;;;8.26;68.18;102510.44;5029421;28;20029;-77
2023/05/19 02:13:07;;;;;;;6.50;4.15;;;;;;;8.24;70.00;102512.16;5029360;28;20552;-77
2023/05/19 02:15:40;;;;;;;6.80;4.00;;;;;;;8.23;69.65;102504.38;5030009;28;20056;-77
2023/05/19 02:18:10;;;;;;;9.30;4.03;;;;;;;8.19;70.32;102504.34;5028582;28;20447;-77
2023/05/19 02:20:37;;;;;;;8.02;4.55;;;;;;;8.18;70.62;102502.59;5026736;28;20036;-77
2023/05/19 02:23:02;;;;;;;9.23;4.47;;;;;;;8.17;70.50;102502.59;5030513;28;20026;-77
2023/05/19 02:25:27;;;;;;;8.32;4.25;;;;;;;8.15;70.87;102499.09;5030213;28;20378;-77
2023/05/19 02:27:53;;;;;;;8.40;4.13;;;;;;;8.16;70.76;102503.44;5029493;28;20086;-77
2023/05/19 02:30:18;;;;;;;9.02;4.57;;;;;;;8.17;70.99;102494.81;5027746;28;20026;-77
2023/05/19 02:32:45;;;;;;;9.73;4.38;;;;;;;8.16;71.15;102503.44;5031965;28;20488;-77
2023/05/19 02:35:11;;;;;;;9.20;4.15;;;;;;;8.16;70.92;102506.03;5027511;28;20022;-77
2023/05/19 02:37:36;;;;;;;9.00;4.50;;;;;;;8.14;71.37;102494.78;5029868;28;20424;-77
2023/05/19 02:40:03;;;;;;;8.80;4.55;;;;;;;8.12;71.31;102497.31;5028353;28;20041;-77
2023/05/19 02:42:28;;;;;;;10.30;4.78;;;;;;;8.10;71.20;102498.16;5029805;28;20021;-77
2023/05/19 02:44:54;;;;;;;8.20;3.85;;;;;;;8.09;71.59;102496.44;5028478;28;20037;-77
2023/05/19 02:47:19;;;;;;;8.18;4.63;;;;;;;8.07;72.12;102498.13;5029830;28;20021;-77
2023/05/19 02:49:44;;;;;;;8.68;4.40;;;;;;;8.05;71.94;102491.19;5029860;28;20469;-77
2023/05/19 02:52:10;;;;;;;8.02;4.28;;;;;;;8.05;72.04;102486.03;5029502;28;20048;-77
2023/05/19 02:54:36;;;;;;;7.70;4.50;;;;;;;8.04;72.63;102493.78;5029019;28;20064;-77
2023/05/19 02:57:01;;;;;;;7.30;4.53;;;;;;;8.03;73.09;102481.69;5030540;28;20032;-77
2023/05/19 02:59:26;;;;;;;7.50;4.65;;;;;;;8.00;73.03;102486.81;5030541;28;20079;-77
2023/05/19 03:01:55;;;;;;;7.53;4.18;;;;;;;8.00;72.88;102487.72;5030238;28;20029;-77
2023/05/19 03:04:21;;;;;;;6.90;3.60;;;;;;;8.00;73.31;102482.53;5031615;28;20034;-78
2023/05/19 03:06:46;;;;;;;9.07;4.03;;;;;;;7.99;73.43;102485.97;5033553;28;20032;-77
2023/05/19 03:09:15;;;;;;;6.35;3.85;;;;;;;7.97;73.20;102479.00;5030804;28;20040;-78
2023/05/19 03:11:40;;;;;;;7.60;4.10;;;;;;;7.96;73.17;102480.75;5030037;28;20031;-77
2023/05/19 03:14:08;;;;;;;5.68;3.92;;;;;;;7.93;73.74;102480.72;5031392;28;20023;-77
2023/05/19 03:16:33;;;;;;;10.02;4.55;;;;;;;7.92;73.69;102489.31;5030136;28;20401;-77
2023/05/19 03:18:58;;;;;;;8.30;4.35;;;;;;;7.92;73.22;102489.31;5030550;28;20045;-77
2023/05/19 03:21:24;;;;;;;9.95;4.88;;;;;;;7.89;73.30;102490.16;5030460;28;20030;-78
2023/05/19 03:23:49;;;;;;;8.40;4.32;;;;;;;7.87;73.65;102489.28;5031988;28;20044;-77
2023/05/19 03:26:14;;;;;;;7.25;4.60;;;;;;;7.85;73.83;102480.63;5027453;28;20017;-77
2023/05/19 03:28:40;;;;;;;7.70;4.32;;;;;;;7.82;74.01;102484.91;5030238;28;20033;-77
2023/05/19 03:31:05;;;;;;;7.50;3.97;;;;;;;7.82;74.33;102487.50;5029345;28;20033;-77
2023/05/19 03:33:30;;;;;;;7.53;4.68;;;;;;;7.81;74.01;102485.75;5028932;28;20535;-78
2023/05/19 03:35:56;;;;;;;7.63;4.68;;;;;;;7.81;73.63;102485.75;5029909;28;20099;-78
2023/05/19 03:38:21;;;;;;;7.43;4.20;;;;;;;7.80;73.66;102495.22;5027747;28;20051;-78
2023/05/19 03:40:46;;;;;;;8.52;4.90;;;;;;;7.80;73.86;102494.38;5028126;28;20048;-77
2023/05/19 03:43:12;;;;;;;6.50;4.60;;;;;;;7.75;74.33;102492.59;5030253;28;20033;-77
2023/05/19 03:45:37;;;;;;;7.38;4.55;;;;;;;7.77;74.61;102494.31;5032874;28;20147;-77
2023/05/19 03:48:02;;;;;;;7.72;5.05;;;;;;;7.75;74.23;102502.94;5032981;28;20033;-77
2023/05/19 03:50:30;;;;;;;8.93;4.82;;;;;;;7.74;73.97;102501.22;5033575;28;20174;-77
2023/05/19 03:52:56;;;;;;;7.75;5.03;;;;;;;7.71;74.69;102500.31;5033173;28;20041;-77
2023/05/19 03:55:21;;;;;;;7.90;4.40;;;;;;;7.70;74.75;102503.75;5033184;28;20465;-77
2023/05/19 03:57:47;;;;;;;7.07;4.13;;;;;;;7.70;74.52;102506.34;5032245;28;20056;-77
2023/05/19 04:00:13;;;;;;;8.23;4.97;;;;;;;7.68;75.28;102516.69;5033997;28;20100;-78
2023/05/19 04:02:38;;;;;;;8.88;4.72;;;;;;;7.68;75.34;102511.50;5032580;28;20064;-77
2023/05/19 04:05:04;;;;;;;7.88;4.57;;;;;;;7.68;75.36;102506.31;5033465;28;20025;-78
2023/05/19 04:07:30;;;;;;;10.13;4.68;;;;;;;7.69;75.19;102508.03;5032064;28;20500;-77
2023/05/19 04:09:55;;;;;;;7.50;4.60;;;;;;;7.70;75.35;102506.34;5032095;28;20480;-77
2023/05/19 04:12:21;;;;;;;8.63;4.85;;;;;;;7.72;75.46;102507.22;5032543;28;20014;-77
2023/05/19 04:14:46;;;;;;;9.30;4.57;;;;;;;7.70;76.00;102504.59;5034235;28;20095;-77
2023/05/19 04:17:11;;;;;;;7.00;4.80;;;;;;;7.73;75.65;102503.78;5030292;28;20040;-77
2023/05/19 04:19:36;;;;;;;7.60;4.30;;;;;;;7.75;75.36;102512.44;5034562;28;20354;-77
2023/05/19 04:22:02;;;;;;;8.55;4.32;;;;;;;7.79;74.86;102505.59;5031886;28;20025;-77
2023/05/19 04:24:27;;;;;;;8.02;4.68;;;;;;;7.81;75.16;102509.06;5034171;28;20030;-77
2023/05/19 04:26:52;;;;;;;7.78;4.90;;;;;;;7.82;75.08;102505.63;5032421;28;20028;-77
2023/05/19 04:29:18;;;;;;;9.63;4.97;;;;;;;7.84;75.35;102506.53;5032004;28;20053;-77
2023/05/19 04:31:44;;;;;;;10.18;5.05;;;;;;;7.84;75.78;102502.19;5032702;28;20487;-77
2023/05/19 04:34:09;;;;;;;7.65;4.95;;;;;;;7.85;75.60;102508.25;5033190;28;20049;-77
2023/05/19 04:36:35;;;;;;;8.90;5.10;;;;;;;7.87;75.49;102512.59;5033267;28;20026;-77
2023/05/19 04:39:01;;;;;;;8.18;5.40;;;;;;;7.90;75.42;102507.47;5032578;28;20105;-77
2023/05/19 04:41:27;;;;;;;9.88;5.05;;;;;;;7.94;75.50;102507.50;5032430;28;20013;-77
2023/05/19 04:43:52;;;;;;;8.48;4.82;;;;;;;7.95;75.30;102502.34;5033775;28;20372;-77
2023/05/19 04:46:22;;;;;;;10.18;5.15;;;;;;;7.98;75.60;102511.84;5033743;28;20029;-77
2023/05/19 04:48:48;;;;;;;8.48;4.97;;;;;;;7.98;75.83;102510.16;5033054;28;20021;-77
2023/05/19 04:51:14;;;;;;;9.13;5.00;;;;;;;8.00;75.51;102511.03;5033534;28;20042;-77
2023/05/19 04:53:40;;;;;;;8.73;5.20;;;;;;;8.03;75.62;102510.19;5032995;28;20087;-77
2023/05/19 04:56:05;;;;;;;10.00;5.00;;;;;;;8.08;75.69;102505.06;5030581;28;20021;-77
2023/05/19 04:58:31;;;;;;;9.07;4.75;;;;;;;8.10;75.77;102506.84;5033061;28;20373;-77
2023/05/19 05:00:59;;;;;;;8.10;5.03;;;;;;;8.15;75.65;102504.28;5031172;28;20476;-78
2023/05/19 05:03:25;;;;;;;9.30;5.15;;;;;;;8.18;75.61;102507.78;5030445;28;20321;-77
2023/05/19 05:05:51;;;;;;;8.65;4.80;;;;;;;8.19;75.79;102508.66;5034591;28;20033;-77
2023/05/19 05:08:21;;;;;;;9.60;4.93;;;;;;;8.19;75.98;102501.75;5034191;28;20018;-78
2023/05/19 05:10:49;;;;;;;8.00;4.85;;;;;;;8.21;75.82;102501.75;5031947;28;20469;-77
2023/05/19 05:13:15;;;;;;;10.32;4.90;;;;;;;8.25;75.82;102502.66;5032280;28;20029;-77
2023/05/19 05:15:40;;;;;;;9.85;5.18;;;;;;;8.29;76.17;102505.31;5032135;28;20477;-77
2023/05/19 05:18:06;;;;;;;10.13;5.30;;;;;;;8.34;75.92;102503.63;5033178;28;20065;-77
2023/05/19 05:20:31;;;;;;;9.38;4.90;;;;;;;8.39;76.29;102506.28;5032263;28;20033;-77
2023/05/19 05:22:57;;;;;;;9.38;5.55;;;;;;;8.46;76.75;102510.66;5033205;28;20108;-77
2023/05/19 05:25:22;;;;;;;10.48;5.18;;;;;;;8.53;76.52;102508.16;5032439;28;20075;-77
2023/05/19 05:27:48;;;;;;;9.75;5.15;;;;;;;8.58;76.42;102509.94;5032937;28;20029;-77
2023/05/19 05:30:13;;;;;;;9.55;5.35;;;;;;;8.65;76.49;102510.88;5031532;28;20048;-77
2023/05/19 05:32:39;;;;;;;10.43;5.13;;;;;;;8.72;77.15;102514.38;5028572;28;20025;-78
2023/05/19 05:35:05;;;;;;;7.53;5.07;;;;;;;8.78;76.47;102506.66;5031656;28;20500;-77
2023/05/19 05:37:30;;;;;;;10.48;5.50;;;;;;;8.84;76.62;102508.44;5031119;28;20032;-77
2023/05/19 05:39:55;;;;;;;8.73;5.07;;;;;;;8.91;76.41;102516.28;5031049;28;20032;-77
2023/05/19 05:42:21;;;;;;;9.50;5.18;;;;;;;8.99;76.27;102518.09;5030757;28;20029;-78
2023/05/19 05:44:46;;;;;;;10.57;4.90;;;;;;;9.04;76.67;102513.81;5031634;28;20469;-77
2023/05/19 05:47:12;;;;;;;8.25;4.90;;;;;;;9.12;75.88;102519.91;5029921;28;20530;-77
2023/05/19 05:49:39;;;;;;;9.32;4.85;;;;;;;9.21;76.66;102517.41;5029424;28;20055;-77
2023/05/19 05:52:06;;;;;;;9.65;5.45;;;;;;;9.29;75.64;102522.66;5031671;28;20128;-77
2023/05/19 05:54:32;;;;;;;9.55;5.35;;;;;;;9.37;75.83;102509.69;5030877;28;20021;-77
2023/05/19 05:56:58;;;;;;;8.77;4.63;;;;;;;9.45;75.88;102505.41;5030459;28;20126;-77
2023/05/19 05:59:23;;;;;;;10.32;5.13;;;;;;;9.50;74.93;102501.13;5030151;28;20484;-77
2023/05/19 06:01:48;;;;;;;7.63;4.43;;;;;;;9.56;75.19;102510.66;5031855;28;20100;-77
2023/05/19 06:04:13;;;;;;;11.15;4.90;;;;;;;9.62;75.23;102512.44;5031047;28;20128;-77
2023/05/19 06:06:38;;;;;;;7.85;4.90;;;;;;;9.68;75.55;102505.53;5029903;28;20029;-78
2023/05/19 06:09:04;;;;;;;9.45;4.93;;;;;;;9.77;75.04;102507.31;5030248;28;20095;-78
2023/05/19 06:11:29;;;;;;;8.55;4.93;;;;;;;9.86;75.02;102498.69;5029624;28;20025;-78
2023/05/19 06:13:55;;;;;;;9.68;5.05;;;;;;;9.96;74.35;102513.47;5030727;28;20228;-77
2023/05/19 06:16:20;;;;;;;10.50;5.07;;;;;;;10.05;73.88;102510.03;5031151;28;20029;-77
2023/05/19 06:18:45;;;;;;;10.48;5.18;;;;;;;10.13;74.57;102516.09;5029502;28;20037;-78
2023/05/19 06:21:12;;;;;;;9.77;4.78;;;;;;;10.22;74.27;102517.00;5029695;28;20329;-77
2023/05/19 06:23:37;;;;;;;11.48;4.93;;;;;;;10.28;74.54;102520.50;5031704;28;20025;-78
2023/05/19 06:26:03;;;;;;;7.60;4.75;;;;;;;10.33;73.29;102518.75;5029693;28;20411;-78
2023/05/19 06:28:28;;;;;;;7.88;4.63;;;;;;;10.39;73.57;102515.34;5031039;28;20025;-78
2023/05/19 06:30:53;;;;;;;8.23;4.82;;;;;;;10.46;71.89;102518.84;5031223;28;20030;-78
2023/05/19 06:33:19;;;;;;;8.05;4.72;;;;;;;10.53;72.73;102519.72;5029487;28;20071;-78
2023/05/19 06:35:44;;;;;;;8.45;5.13;;;;;;;10.59;72.53;102517.13;5028937;28;20075;-78
2023/05/19 06:38:09;;;;;;;7.63;4.78;;;;;;;10.63;72.84;102521.44;5030656;28;20431;-78
2023/05/19 06:40:35;;;;;;;8.43;4.55;;;;;;;10.66;72.33;102524.06;5030602;28;20029;-78
2023/05/19 06:43:01;;;;;;;10.75;5.22;;;;;;;10.70;73.01;102515.38;5031614;28;20104;-78
2023/05/19 06:45:26;;;;;;;8.27;4.50;;;;;;;10.75;72.51;102524.09;5026558;28;20516;-78
2023/05/19 06:47:52;;;;;;;7.63;4.57;;;;;;;10.76;72.18;102517.97;5029824;28;20037;-77
2023/05/19 06:50:18;;;;;;;9.10;4.60;;;;;;;10.80;72.58;102526.69;5029451;28;20018;-77
2023/05/19 06:52:43;;;;;;;7.75;4.85;;;;;;;10.82;71.68;102518.84;5029158;28;20111;-78
2023/05/19 06:55:08;;;;;;;8.43;4.68;;;;;;;10.85;70.99;102518.88;5028963;28;20039;-78
2023/05/19 06:57:34;;;;;;;9.38;4.60;;;;;;;10.89;71.55;102520.59;5029437;28;20376;-77
2023/05/19 07:00:00;;;;;;;7.72;4.43;;;;;;;10.94;72.38;102513.63;5027455;28;20108;-77
2023/05/19 07:02:25;;;;;;;10.88;4.30;;;;;;;11.03;71.16;102513.66;5030846;28;20112;-78
2023/05/19 07:04:52;;;;;;;8.77;4.47;;;;;;;11.13;70.62;102518.84;5029265;28;20025;-78
2023/05/19 07:07:18;;;;;;;7.28;4.25;;;;;;;11.22;71.79;102518.84;5028041;28;20376;-78
2023/05/19 07:09:43;;;;;;;6.63;4.28;;;;;;;11.30;70.28;102521.44;5027390;28;20112;-78
2023/05/19 07:12:08;;;;;;;8.90;4.25;;;;;;;11.38;71.02;102511.84;5029534;28;20104;-78
2023/05/19 07:14:35;;;;;;;11.90;4.50;;;;;;;11.46;69.94;102511.84;5028081;28;20531;-78
2023/05/19 07:17:00;;;;;;;6.53;4.00;;;;;;;11.52;69.12;102517.94;5029712;28;20053;-78
2023/05/19 07:19:25;;;;;;;8.55;4.38;;;;;;;11.57;70.75;102517.91;5031382;28;20053;-78
2023/05/19 07:21:51;;;;;;;7.28;4.10;;;;;;;11.62;68.05;102516.13;5032680;28;20037;-78
2023/05/19 07:24:16;;;;;;;9.50;4.20;;;;;;;11.66;68.05;102515.25;5033625;28;20030;-78
2023/05/19 07:26:41;;;;;;;6.72;3.67;;;;;;;11.74;67.79;102528.25;5032909;28;20033;-79
2023/05/19 07:29:07;;;;;;;9.52;4.07;;;;;;;11.77;67.03;102511.75;5033999;28;20037;-78
2023/05/19 07:31:32;;;;;;;7.45;3.90;;;;;;;11.83;67.48;102522.16;5031944;28;20030;-78
2023/05/19 07:33:58;;;;;;;8.52;4.43;;;;;;;11.88;67.33;102523.00;5032179;28;20440;-78
2023/05/19 07:36:23;;;;;;;7.20;3.80;;;;;;;11.94;67.03;102516.88;5030499;28;20082;-78
2023/05/19 07:38:48;;;;;;;6.55;3.67;;;;;;;12.01;67.56;102520.38;5034804;28;20060;-78
2023/05/19 07:41:14;;;;;;;7.82;3.80;;;;;;;12.08;68.14;102519.47;5032634;28;20171;-78
2023/05/19 07:43:39;;;;;;;6.15;3.58;;;;;;;12.14;66.17;102516.81;5034298;28;20112;-78
2023/05/19 07:46:04;;;;;;;7.40;4.07;;;;;;;12.20;65.99;102522.00;5033089;28;20056;-78
2023/05/19 07:48:30;;;;;;;7.60;3.72;;;;;;;12.25;66.53;102519.38;5032293;28;20033;-78
2023/05/19 07:50:55;;;;;;;7.20;4.18;;;;;;;12.33;65.86;102519.31;5034353;28;20071;-78
2023/05/19 07:53:21;;;;;;;7.25;3.53;;;;;;;12.40;65.23;102521.03;5032373;28;20049;-78
2023/05/19 07:55:47;;;;;;;7.68;3.80;;;;;;;12.45;64.81;102511.44;5031253;28;20041;-78
2023/05/19 07:58:12;;;;;;;8.00;3.90;;;;;;;12.49;64.35;102514.88;5026563;28;20129;-78
2023/05/19 08:00:38;;;;;;;7.45;4.10;;;;;;;12.51;63.15;102511.38;5024834;28;20040;-78
2023/05/19 08:03:03;;;;;;;6.30;3.33;;;;;;;12.56;64.85;102512.22;5026348;28;20446;-78
2023/05/19 08:05:28;;;;;;;7.70;3.67;;;;;;;12.63;66.18;102504.34;5027697;28;20033;-78
2023/05/19 08:07:55;;;;;;;5.78;3.60;;;;;;;12.69;65.08;102499.06;5027786;28;20459;-78
2023/05/19 08:10:20;;;;;;;5.32;3.50;;;;;;;12.74;65.21;102497.28;5028752;28;20076;-78
2023/05/19 08:12:45;;;;;;;7.53;3.35;;;;;;;12.79;64.21;102492.91;5027881;28;20022;-78
2023/05/19 08:15:11;;;;;;;5.35;3.20;;;;;;;12.87;62.29;102495.44;5027210;28;20440;-78
2023/05/19 08:17:36;;;;;;;5.63;3.40;;;;;;;12.96;63.98;102497.13;5026406;28;20112;-78
2023/05/19 08:20:04;;;;;;;7.93;3.30;;;;;;;13.03;62.64;102489.19;5026990;28;20491;-78
2023/05/19 08:22:30;;;;;;;7.40;3.50;;;;;;;13.12;62.55;102489.97;5025964;28;20425;-78
2023/05/19 08:24:55;;;;;;;4.47;3.00;;;;;;;13.17;60.64;102478.59;5027113;28;20112;-78
2023/05/19 08:27:21;;;;;;;7.53;3.53;;;;;;;13.28;61.42;102475.03;5027643;28;20021;-79
2023/05/19 08:29:46;;;;;;;7.00;3.03;;;;;;;13.39;62.31;102474.91;5026336;28;20021;-79
2023/05/19 08:32:11;;;;;;;5.78;2.80;;;;;;;13.48;59.86;102470.47;5025487;28;20022;-78
2023/05/19 08:34:37;;;;;;;6.85;2.63;;;;;;;13.62;61.79;102475.50;5023936;28;20048;-78
2023/05/19 08:37:02;;;;;;;5.25;2.90;;;;;;;13.74;59.67;102466.66;5027581;28;20032;-78
2023/05/19 08:39:27;;;;;;;5.38;2.80;;;;;;;13.87;61.69;102466.47;5027164;28;20203;-78
2023/05/19 08:41:53;;;;;;;8.45;2.97;;;;;;;13.97;60.31;102462.88;5027446;28;20079;-78
2023/05/19 08:44:19;;;;;;;6.28;2.85;;;;;;;14.08;59.65;102455.72;5027261;28;20025;-78
2023/05/19 08:46:46;;;;;;;4.65;2.30;;;;;;;14.21;59.85;102463.38;5028641;28;20033;-77
2023/05/19 08:49:13;;;;;;;5.50;2.30;;;;;;;14.30;57.28;102458.03;5032518;28;20025;-77
2023/05/19 08:52:05;;;;;;;7.13;2.60;;;;;;;14.40;59.09;102458.75;5032517;28;20507;-77
2023/05/19 08:54:40;;;;;;;4.18;1.98;;;;;;;14.49;56.87;102447.25;5031645;28;20033;-77
2023/05/19 08:57:06;;;;;;;4.72;2.38;;;;;;;14.56;56.19;102446.25;5034007;28;20037;-77
2023/05/19 08:59:32;;;;;;;6.10;2.42;;;;;;;14.64;59.72;102447.00;5032568;28;20035;-77
2023/05/19 09:01:58;;;;;;;5.50;2.55;;;;;;;14.74;56.76;102444.25;5032671;28;20124;-78
2023/05/19 09:04:26;;;;;;;5.40;2.33;;;;;;;14.82;57.08;102445.00;5034628;28;20033;-78
2023/05/19 09:06:51;;;;;;;3.45;1.67;;;;;;;14.90;54.92;102443.06;5029602;28;20025;-78
2023/05/19 09:09:17;;;;;;;4.22;1.90;;;;;;;14.96;54.59;102440.34;5027785;28;20074;-77
2023/05/19 09:11:45;;;;;;;4.78;1.88;;;;;;;15.02;54.54;102440.25;5027296;28;20349;-77
2023/05/19 09:14:10;;;;;;;5.93;1.80;;;;;;;15.07;54.30;102436.66;5027052;28;20086;-77
2023/05/19 09:16:35;;;;;;;4.32;1.58;;;;;;;15.13;53.38;102436.56;5024461;28;20029;-77
2023/05/19 09:19:01;;;;;;;3.63;1.40;;;;;;;15.19;49.70;102441.69;5027825;28;20053;-77
2023/05/19 09:21:29;;;;;;;6.32;1.33;;;;;;;15.24;48.14;102434.56;5026155;28;20059;-77
2023/05/19 09:23:55;;;;;;;4.22;1.05;;;;;;;15.30;49.34;102429.22;5020636;28;20037;-78
2023/05/19 09:26:22;;;;;;;4.10;1.23;;;;;;;15.35;48.80;102421.25;5020821;28;20033;-78
2023/05/19 09:28:47;;;;;;;3.80;1.25;;;;;;;15.38;48.53;102423.81;5020147;28;20037;-77
2023/05/19 09:31:13;;;;;;;4.90;1.45;;;;;;;15.40;50.36;102426.41;5021469;28;20031;-77
2023/05/19 09:33:41;;;;;;;4.22;1.20;;;;;;;15.41;48.95;102422.88;5020067;28;20098;-78
2023/05/19 09:36:07;;;;;;;2.80;1.30;;;;;;;15.36;47.41;102417.72;5021579;28;20048;-77
2023/05/19 09:38:34;;;;;;;4.25;1.10;;;;;;;15.31;49.62;102419.56;5021446;28;20029;-76
2023/05/19 09:41:00;;;;;;;4.50;1.42;;;;;;;15.26;48.11;102417.06;5021417;28;20052;-77
2023/05/19 09:43:29;;;;;;;4.55;1.50;;;;;;;15.24;49.48;102420.63;5020548;28;20029;-77
2023/05/19 09:46:05;;;;;;;4.40;1.48;;;;;;;15.23;49.70;102422.34;5025214;28;20104;-77
2023/05/19 09:48:31;;;;;;;3.40;1.40;;;;;;;15.24;53.13;102418.00;5018133;28;20751;-77
2023/05/19 09:50:56;;;;;;;6.18;1.80;;;;;;;15.25;49.25;102419.72;5020568;28;20552;-77
2023/05/19 09:53:24;;;;;;;6.40;2.05;;;;;;;15.25;50.01;102425.81;5020431;28;20045;-77
2023/05/19 09:55:50;;;;;;;3.50;1.70;;;;;;;15.29;51.15;102421.38;5018623;28;20468;-78
2023/05/19 09:58:18;;;;;;;4.35;1.60;;;;;;;15.36;52.29;102414.25;5018044;28;20029;-77
2023/05/19 10:00:46;;;;;;;6.10;1.85;;;;;;;15.41;51.31;102417.63;5018648;28;20071;-77
2023/05/19 10:03:12;;;;;;;5.43;1.67;;;;;;;15.43;49.54;102421.09;5017698;28;20030;-79
2023/05/19 10:05:37;;;;;;;6.97;1.98;;;;;;;15.37;49.87;102416.00;5021541;28;20091;-78
2023/05/19 10:08:06;;;;;;;4.25;1.67;;;;;;;15.28;48.60;102423.13;5020243;28;20079;-78
2023/05/19 10:10:32;;;;;;;4.22;1.70;;;;;;;15.25;48.45;102425.81;5020033;28;20037;-78
2023/05/19 10:12:57;;;;;;;4.45;1.83;;;;;;;15.28;48.83;102412.66;5021419;28;20025;-77
2023/05/19 10:15:23;;;;;;;5.25;1.30;;;;;;;15.39;49.29;102403.69;5021384;28;20071;-78
2023/05/19 10:17:49;;;;;;;4.93;1.35;;;;;;;15.51;51.66;102415.69;5022223;28;20036;-78
2023/05/19 10:20:16;;;;;;;3.75;1.40;;;;;;;15.57;47.34;102419.03;5020974;28;20033;-78
2023/05/19 10:22:43;;;;;;;4.38;1.30;;;;;;;15.60;47.69;102421.59;5021584;28;20138;-78
2023/05/19 10:25:09;;;;;;;3.80;1.55;;;;;;;15.60;46.87;102411.09;5021181;28;20116;-78
2023/05/19 10:27:39;;;;;;;3.85;1.40;;;;;;;15.60;47.37;102405.84;5019626;28;20033;-78
2023/05/19 10:30:12;;;;;;;4.57;1.58;;;;;;;15.61;48.51;102410.22;5020263;28;20456;-78
2023/05/19 10:32:40;;;;;;;5.85;1.30;;;;;;;15.57;48.39;102400.66;5021119;28;20110;-78
2023/05/19 10:35:19;;;;;;;4.25;1.40;;;;;;;15.56;48.58;102403.34;5021114;28;20025;-78
2023/05/19 10:38:09;;;;;;;2.75;1.30;;;;;;;15.55;47.17;102397.22;5020292;28;20701;-78
2023/05/19 10:41:01;;;;;;;3.63;1.33;;;;;;;15.54;49.76;102394.63;5024183;28;20037;-77
2023/05/19 10:43:35;;;;;;;6.15;1.63;;;;;;;15.53;48.20;102392.91;5021360;28;20044;-78
2023/05/19 10:46:01;;;;;;;4.43;1.70;;;;;;;15.53;48.54;102383.28;5022477;28;20405;-78
2023/05/19 10:48:32;;;;;;;4.15;1.30;;;;;;;15.56;47.82;102385.81;5021743;28;20029;-77
2023/05/19 10:50:58;;;;;;;3.70;1.25;;;;;;;15.62;50.61;102383.09;5020792;28;20044;-81
2023/05/19 10:53:33;;;;;;;4.53;1.50;;;;;;;15.66;48.93;102383.00;5023324;28;21295;-79
2023/05/19 10:56:05;;;;;;;3.60;1.50;;;;;;;15.65;45.63;102387.38;5023449;28;20057;-77
2023/05/19 10:58:43;;;;;;;3.40;1.40;;;;;;;15.67;48.17;102387.38;5025281;28;20033;-77
2023/05/19 11:01:16;;;;;;;4.88;1.30;;;;;;;15.67;47.37;102380.34;5025500;28;20038;-77
2023/05/19 11:03:51;;;;;;;4.03;1.35;;;;;;;15.67;45.64;102382.97;5022592;28;20057;-78
2023/05/19 11:06:20;;;;;;;3.78;1.20;;;;;;;15.71;47.45;102378.53;5023422;28;20041;-78
2023/05/19 11:08:46;;;;;;;3.78;1.35;;;;;;;15.73;46.93;102384.59;5022528;28;20036;-78
2023/05/19 11:11:15;;;;;;;1.90;1.20;;;;;;;15.75;46.69;102393.28;5024105;28;20030;-78
2023/05/19 11:13:49;;;;;;;2.70;1.30;;;;;;;15.77;46.57;102386.25;5024420;28;20025;-78
2023/05/19 11:16:18;;;;;;;3.05;1.35;;;;;;;15.79;47.15;102384.47;5024014;28;20037;-76
2023/05/19 11:18:47;;;;;;;4.10;1.42;;;;;;;15.83;45.50;102385.25;5023363;28;20037;-77
2023/05/19 11:21:12;;;;;;;4.15;1.60;;;;;;;15.88;45.65;102383.41;5023359;28;20157;-77
2023/05/19 11:23:40;;;;;;;3.42;1.50;;;;;;;15.91;44.47;102383.34;5022322;28;20082;-77
2023/05/19 11:26:07;;;;;;;4.10;1.63;;;;;;;15.92;45.71;102377.19;5022775;28;20571;-78
2023/05/19 11:28:33;;;;;;;3.67;1.50;;;;;;;15.97;47.56;102379.72;5020825;28;20551;-77